IGO51J WIMM-VOBL
Flight info
| Callsign | IGO51J |
|---|---|
| Flight time | 3h 25m |
| Altitude | 38000 |
| Route | MEMAK N563 LEKAP LEKAP7F |
| Aircraft | A320/M-SDE3FGHIRWY/LB1 |
Departure
| Time | 2026-04-19 22:15 |
|---|---|
| Airport | Kualanamu International Airport (WIMM) |
Arrival
| Time | 2026-04-20 01:41 |
|---|---|
| Airport | Kempegowda International Airport Bengaluru (VOBL) |
| Time | Latitude | Longitude | Altitude | Speed | Heading |
|---|---|---|---|---|---|
| 2026-04-19 22:02 | 3.63720 | 98.88004 | 27 ft | 0 kts | 225° |
| 2026-04-19 22:05 | 3.63733 | 98.88017 | 27 ft | 4 kts | 220° |
| 2026-04-19 22:06 | 3.63747 | 98.88028 | 27 ft | 4 kts | 214° |
| 2026-04-19 22:06 | 3.63770 | 98.88041 | 27 ft | 4 kts | 201° |
| 2026-04-19 22:06 | 3.63783 | 98.88046 | 27 ft | 1 kts | 197° |
| 2026-04-19 22:06 | 3.63785 | 98.88046 | 27 ft | 0 kts | 197° |
| 2026-04-19 22:08 | 3.63784 | 98.88047 | 27 ft | 0 kts | 186° |
| 2026-04-19 22:08 | 3.63780 | 98.88053 | 27 ft | 2 kts | 133° |
| 2026-04-19 22:09 | 3.63765 | 98.88074 | 27 ft | 5 kts | 126° |
| 2026-04-19 22:09 | 3.63731 | 98.88114 | 27 ft | 9 kts | 133° |
| 2026-04-19 22:09 | 3.63679 | 98.88167 | 27 ft | 13 kts | 135° |
| 2026-04-19 22:09 | 3.63612 | 98.88246 | 27 ft | 16 kts | 107° |
| 2026-04-19 22:10 | 3.63668 | 98.88337 | 27 ft | 17 kts | 45° |
| 2026-04-19 22:10 | 3.63756 | 98.88425 | 27 ft | 19 kts | 44° |
| 2026-04-19 22:10 | 3.63843 | 98.88435 | 27 ft | 8 kts | 311° |
| 2026-04-19 22:10 | 3.63891 | 98.88390 | 27 ft | 10 kts | 319° |
| 2026-04-19 22:11 | 3.63946 | 98.88333 | 27 ft | 12 kts | 315° |
| 2026-04-19 22:11 | 3.64012 | 98.88267 | 27 ft | 14 kts | 315° |
| 2026-04-19 22:11 | 3.64089 | 98.88191 | 27 ft | 17 kts | 315° |
| 2026-04-19 22:11 | 3.64176 | 98.88103 | 27 ft | 19 kts | 315° |
| 2026-04-19 22:12 | 3.64277 | 98.88004 | 27 ft | 22 kts | 314° |
| 2026-04-19 22:12 | 3.64383 | 98.88031 | 27 ft | 18 kts | 45° |
| 2026-04-19 22:12 | 3.64475 | 98.88124 | 27 ft | 20 kts | 45° |
| 2026-04-19 22:12 | 3.64579 | 98.88227 | 27 ft | 22 kts | 45° |
| 2026-04-19 22:13 | 3.64694 | 98.88341 | 27 ft | 24 kts | 45° |
| 2026-04-19 22:13 | 3.64805 | 98.88411 | 27 ft | 10 kts | 340° |
| 2026-04-19 22:13 | 3.64862 | 98.88354 | 26 ft | 14 kts | 314° |
| 2026-04-19 22:13 | 3.64935 | 98.88277 | 28 ft | 17 kts | 311° |
| 2026-04-19 22:14 | 3.64929 | 98.88186 | 28 ft | 14 kts | 215° |
| 2026-04-19 22:14 | 3.64860 | 98.88126 | 28 ft | 6 kts | 224° |
| 2026-04-19 22:14 | 3.64859 | 98.88125 | 28 ft | 2 kts | 224° |
| 2026-04-19 22:14 | 3.64661 | 98.87927 | 29 ft | 75 kts | 225° |
| 2026-04-19 22:15 | 3.64146 | 98.87414 | 27 ft | 130 kts | 225° |
| 2026-04-19 22:15 | 3.63396 | 98.86672 | 52 ft | 170 kts | 224° |
| 2026-04-19 22:15 | 3.62587 | 98.85909 | 813 ft | 155 kts | 223° |
| 2026-04-19 22:15 | 3.61781 | 98.85149 | 1227 ft | 166 kts | 225° |
| 2026-04-19 22:16 | 3.60936 | 98.84259 | 1488 ft | 186 kts | 227° |
| 2026-04-19 22:16 | 3.59991 | 98.83266 | 1755 ft | 209 kts | 227° |
| 2026-04-19 22:16 | 3.58906 | 98.82176 | 2059 ft | 233 kts | 229° |
| 2026-04-19 22:16 | 3.58121 | 98.80704 | 2409 ft | 254 kts | 263° |
| 2026-04-19 22:17 | 3.58389 | 98.78948 | 3053 ft | 262 kts | 295° |
| 2026-04-19 22:17 | 3.59315 | 98.77357 | 3892 ft | 266 kts | 306° |
| 2026-04-19 22:17 | 3.60425 | 98.75863 | 4761 ft | 269 kts | 308° |
| 2026-04-19 22:17 | 3.61563 | 98.74363 | 5591 ft | 273 kts | 307° |
| 2026-04-19 22:18 | 3.62683 | 98.72809 | 6397 ft | 277 kts | 305° |
| 2026-04-19 22:18 | 3.63768 | 98.71203 | 7163 ft | 280 kts | 303° |
| 2026-04-19 22:18 | 3.64830 | 98.69550 | 7931 ft | 284 kts | 302° |
| 2026-04-19 22:18 | 3.65880 | 98.67860 | 8690 ft | 287 kts | 301° |
| 2026-04-19 22:19 | 3.66929 | 98.66140 | 9439 ft | 291 kts | 302° |
| 2026-04-19 22:19 | 3.68184 | 98.64556 | 9749 ft | 295 kts | 314° |
| 2026-04-19 22:19 | 3.69652 | 98.63069 | 9836 ft | 311 kts | 314° |
| 2026-04-19 22:19 | 3.71226 | 98.61488 | 9841 ft | 322 kts | 314° |
| 2026-04-19 22:20 | 3.72827 | 98.59880 | 9842 ft | 325 kts | 314° |
| 2026-04-19 22:20 | 3.74428 | 98.58269 | 9841 ft | 322 kts | 314° |
| 2026-04-19 22:20 | 3.76018 | 98.56667 | 9842 ft | 321 kts | 314° |
| 2026-04-19 22:20 | 3.77601 | 98.55067 | 9847 ft | 321 kts | 314° |
| 2026-04-19 22:21 | 3.79161 | 98.53488 | 9844 ft | 324 kts | 314° |
| 2026-04-19 22:21 | 3.80721 | 98.51906 | 9845 ft | 325 kts | 314° |
| 2026-04-19 22:21 | 3.82298 | 98.50309 | 9847 ft | 325 kts | 314° |
| 2026-04-19 22:21 | 3.83871 | 98.48716 | 9848 ft | 320 kts | 314° |
| 2026-04-19 22:22 | 3.85451 | 98.47116 | 9846 ft | 319 kts | 314° |
| 2026-04-19 22:22 | 3.87024 | 98.45522 | 9845 ft | 318 kts | 314° |
| 2026-04-19 22:22 | 3.88589 | 98.43910 | 9848 ft | 326 kts | 310° |
| 2026-04-19 22:22 | 3.89864 | 98.42018 | 9849 ft | 331 kts | 296° |
| 2026-04-19 22:23 | 3.90633 | 98.39844 | 9908 ft | 334 kts | 281° |
| 2026-04-19 22:23 | 3.90827 | 98.37521 | 10538 ft | 336 kts | 268° |
| 2026-04-19 22:23 | 3.90613 | 98.35183 | 11183 ft | 339 kts | 264° |
| 2026-04-19 22:23 | 3.90369 | 98.32819 | 11830 ft | 343 kts | 264° |
| 2026-04-19 22:24 | 3.90121 | 98.30455 | 12448 ft | 346 kts | 264° |
| 2026-04-19 22:24 | 3.89866 | 98.28045 | 13050 ft | 350 kts | 264° |
| 2026-04-19 22:24 | 3.89607 | 98.25610 | 13649 ft | 353 kts | 264° |
| 2026-04-19 22:24 | 3.89344 | 98.23151 | 14174 ft | 357 kts | 264° |
| 2026-04-19 22:25 | 3.89081 | 98.20673 | 14704 ft | 360 kts | 264° |
| 2026-04-19 22:25 | 3.88816 | 98.18166 | 15231 ft | 363 kts | 264° |
| 2026-04-19 22:25 | 3.88548 | 98.15640 | 15751 ft | 366 kts | 264° |
| 2026-04-19 22:25 | 3.88276 | 98.13098 | 16260 ft | 369 kts | 264° |
| 2026-04-19 22:26 | 3.87998 | 98.10530 | 16784 ft | 372 kts | 264° |
| 2026-04-19 22:26 | 3.87720 | 98.07974 | 17286 ft | 375 kts | 264° |
| 2026-04-19 22:26 | 3.87437 | 98.05364 | 17790 ft | 378 kts | 264° |
| 2026-04-19 22:26 | 3.87154 | 98.02733 | 18297 ft | 381 kts | 264° |
| 2026-04-19 22:27 | 3.86871 | 98.00082 | 18732 ft | 384 kts | 264° |
| 2026-04-19 22:27 | 3.86588 | 97.97407 | 19180 ft | 386 kts | 264° |
| 2026-04-19 22:27 | 3.86304 | 97.94724 | 19632 ft | 389 kts | 264° |
| 2026-04-19 22:27 | 3.86016 | 97.92023 | 20084 ft | 391 kts | 264° |
| 2026-04-19 22:28 | 3.85894 | 97.89303 | 20553 ft | 393 kts | 274° |
| 2026-04-19 22:28 | 3.86280 | 97.86589 | 20990 ft | 395 kts | 284° |
| 2026-04-19 22:28 | 3.87179 | 97.83993 | 21413 ft | 396 kts | 294° |
| 2026-04-19 22:28 | 3.88294 | 97.81453 | 21829 ft | 399 kts | 294° |
| 2026-04-19 22:29 | 3.89395 | 97.78927 | 22239 ft | 401 kts | 294° |
| 2026-04-19 22:29 | 3.90513 | 97.76350 | 22660 ft | 404 kts | 294° |
| 2026-04-19 22:29 | 3.91635 | 97.73760 | 23126 ft | 406 kts | 294° |
| 2026-04-19 22:29 | 3.92763 | 97.71156 | 23541 ft | 409 kts | 294° |
| 2026-04-19 22:30 | 3.93898 | 97.68535 | 23882 ft | 411 kts | 294° |
| 2026-04-19 22:30 | 3.95034 | 97.65903 | 24211 ft | 413 kts | 294° |
| 2026-04-19 22:30 | 3.96176 | 97.63251 | 24547 ft | 415 kts | 294° |
| 2026-04-19 22:30 | 3.97323 | 97.60590 | 24868 ft | 417 kts | 294° |
| 2026-04-19 22:31 | 3.98479 | 97.57912 | 25202 ft | 420 kts | 294° |
| 2026-04-19 22:31 | 3.99642 | 97.55224 | 25518 ft | 422 kts | 294° |
| 2026-04-19 22:31 | 4.00815 | 97.52517 | 25840 ft | 425 kts | 294° |
| 2026-04-19 22:31 | 4.01994 | 97.49801 | 26167 ft | 427 kts | 294° |
| 2026-04-19 22:32 | 4.03186 | 97.47066 | 26492 ft | 429 kts | 294° |
| 2026-04-19 22:32 | 4.04382 | 97.44321 | 26797 ft | 431 kts | 294° |
| 2026-04-19 22:32 | 4.05579 | 97.41568 | 27108 ft | 433 kts | 294° |
| 2026-04-19 22:32 | 4.06787 | 97.38791 | 27411 ft | 435 kts | 294° |
| 2026-04-19 22:33 | 4.07997 | 97.36004 | 27710 ft | 437 kts | 294° |
| 2026-04-19 22:33 | 4.09210 | 97.33206 | 27998 ft | 439 kts | 294° |
| 2026-04-19 22:33 | 4.10426 | 97.30390 | 28288 ft | 441 kts | 294° |
| 2026-04-19 22:33 | 4.11652 | 97.27559 | 28595 ft | 444 kts | 294° |
| 2026-04-19 22:34 | 4.12884 | 97.24721 | 28908 ft | 446 kts | 294° |
| 2026-04-19 22:34 | 4.14124 | 97.21863 | 29217 ft | 448 kts | 294° |
| 2026-04-19 22:34 | 4.15350 | 97.19029 | 29528 ft | 450 kts | 294° |
| 2026-04-19 22:34 | 4.16600 | 97.16140 | 29849 ft | 453 kts | 294° |
| 2026-04-19 22:35 | 4.17851 | 97.13238 | 30145 ft | 455 kts | 294° |
| 2026-04-19 22:35 | 4.19111 | 97.10319 | 30415 ft | 457 kts | 294° |
| 2026-04-19 22:35 | 4.20379 | 97.07392 | 30684 ft | 459 kts | 294° |
| 2026-04-19 22:35 | 4.21655 | 97.04454 | 30953 ft | 460 kts | 294° |
| 2026-04-19 22:36 | 4.22932 | 97.01513 | 31308 ft | 460 kts | 294° |
| 2026-04-19 22:36 | 4.24200 | 96.98577 | 31700 ft | 458 kts | 293° |
| 2026-04-19 22:36 | 4.25463 | 96.95653 | 32115 ft | 456 kts | 293° |
| 2026-04-19 22:36 | 4.26726 | 96.92734 | 32515 ft | 455 kts | 293° |
| 2026-04-19 22:37 | 4.27984 | 96.89828 | 32930 ft | 454 kts | 293° |
| 2026-04-19 22:37 | 4.29239 | 96.86924 | 33327 ft | 453 kts | 293° |
| 2026-04-19 22:37 | 4.30491 | 96.84030 | 33724 ft | 452 kts | 293° |
| 2026-04-19 22:37 | 4.31725 | 96.81184 | 34086 ft | 451 kts | 293° |
| 2026-04-19 22:38 | 4.32974 | 96.78299 | 34411 ft | 451 kts | 293° |
| 2026-04-19 22:38 | 4.34216 | 96.75421 | 34743 ft | 450 kts | 292° |
| 2026-04-19 22:38 | 4.35455 | 96.72550 | 35079 ft | 448 kts | 293° |
| 2026-04-19 22:38 | 4.36719 | 96.69698 | 35401 ft | 448 kts | 294° |
| 2026-04-19 22:39 | 4.38009 | 96.66863 | 35702 ft | 447 kts | 294° |
| 2026-04-19 22:39 | 4.39312 | 96.64040 | 36059 ft | 445 kts | 294° |
| 2026-04-19 22:39 | 4.40614 | 96.61220 | 36383 ft | 444 kts | 294° |
| 2026-04-19 22:39 | 4.41908 | 96.58410 | 36688 ft | 444 kts | 294° |
| 2026-04-19 22:40 | 4.43196 | 96.55602 | 36980 ft | 443 kts | 294° |
| 2026-04-19 22:40 | 4.44475 | 96.52797 | 37269 ft | 442 kts | 294° |
| 2026-04-19 22:40 | 4.45745 | 96.49999 | 37539 ft | 442 kts | 294° |
| 2026-04-19 22:40 | 4.47017 | 96.47197 | 37817 ft | 441 kts | 294° |
| 2026-04-19 22:41 | 4.48288 | 96.44394 | 37929 ft | 443 kts | 294° |
| 2026-04-19 22:41 | 4.50852 | 96.38759 | 37929 ft | 445 kts | 294° |
| 2026-04-19 22:42 | 4.53420 | 96.33113 | 37917 ft | 445 kts | 294° |
| 2026-04-19 22:42 | 4.55989 | 96.27474 | 37942 ft | 444 kts | 294° |
| 2026-04-19 22:43 | 4.58549 | 96.21845 | 37919 ft | 443 kts | 294° |
| 2026-04-19 22:43 | 4.61103 | 96.16218 | 37923 ft | 444 kts | 294° |
| 2026-04-19 22:44 | 4.63659 | 96.10582 | 37934 ft | 444 kts | 294° |
| 2026-04-19 22:44 | 4.66208 | 96.04982 | 37926 ft | 445 kts | 294° |
| 2026-04-19 22:45 | 4.68777 | 95.99342 | 37927 ft | 445 kts | 294° |
| 2026-04-19 22:45 | 4.71347 | 95.93688 | 37917 ft | 446 kts | 294° |
| 2026-04-19 22:46 | 4.73907 | 95.88028 | 37918 ft | 446 kts | 294° |
| 2026-04-19 22:46 | 4.76473 | 95.82363 | 37919 ft | 446 kts | 294° |
| 2026-04-19 22:47 | 4.79052 | 95.76694 | 37905 ft | 446 kts | 294° |
| 2026-04-19 22:47 | 4.81628 | 95.71032 | 37902 ft | 446 kts | 294° |
| 2026-04-19 22:48 | 4.84195 | 95.65365 | 37918 ft | 446 kts | 294° |
| 2026-04-19 22:48 | 4.86760 | 95.59699 | 37915 ft | 446 kts | 294° |
| 2026-04-19 22:49 | 4.89321 | 95.54033 | 37913 ft | 445 kts | 294° |
| 2026-04-19 22:49 | 4.91871 | 95.48412 | 37914 ft | 445 kts | 294° |
| 2026-04-19 22:50 | 4.94440 | 95.42760 | 37913 ft | 445 kts | 294° |
| 2026-04-19 22:50 | 4.97000 | 95.37104 | 37906 ft | 444 kts | 294° |
| 2026-04-19 22:51 | 4.99122 | 95.32412 | 37891 ft | 444 kts | 294° |
| 2026-04-19 22:51 | 5.02955 | 95.23951 | 37901 ft | 444 kts | 294° |
| 2026-04-19 22:52 | 5.05509 | 95.18305 | 37903 ft | 444 kts | 294° |
| 2026-04-19 22:52 | 5.08062 | 95.12671 | 37899 ft | 444 kts | 294° |
| 2026-04-19 22:53 | 5.10611 | 95.07032 | 37900 ft | 444 kts | 294° |
| 2026-04-19 22:53 | 5.13156 | 95.01392 | 37910 ft | 444 kts | 294° |
| 2026-04-19 22:54 | 5.15705 | 94.95756 | 37905 ft | 444 kts | 294° |
| 2026-04-19 22:54 | 5.18258 | 94.90113 | 37906 ft | 444 kts | 294° |
| 2026-04-19 22:55 | 5.20814 | 94.84464 | 37906 ft | 444 kts | 294° |
| 2026-04-19 22:55 | 5.23346 | 94.78850 | 37907 ft | 444 kts | 294° |
| 2026-04-19 22:56 | 5.25883 | 94.73202 | 37902 ft | 444 kts | 294° |
| 2026-04-19 22:56 | 5.28442 | 94.67550 | 37903 ft | 444 kts | 294° |
| 2026-04-19 22:57 | 5.31005 | 94.61899 | 37907 ft | 444 kts | 294° |
| 2026-04-19 22:57 | 5.33549 | 94.56249 | 37893 ft | 445 kts | 294° |
| 2026-04-19 22:58 | 5.36100 | 94.50579 | 37883 ft | 446 kts | 294° |
| 2026-04-19 22:58 | 5.38658 | 94.44893 | 37881 ft | 448 kts | 294° |
| 2026-04-19 22:59 | 5.41223 | 94.39200 | 37888 ft | 448 kts | 294° |
| 2026-04-19 22:59 | 5.43781 | 94.33532 | 37901 ft | 449 kts | 294° |
| 2026-04-19 23:00 | 5.46363 | 94.27824 | 37894 ft | 449 kts | 294° |
| 2026-04-19 23:00 | 5.48929 | 94.22110 | 37896 ft | 449 kts | 294° |
| 2026-04-19 23:01 | 5.51497 | 94.16393 | 37889 ft | 450 kts | 294° |
| 2026-04-19 23:01 | 5.54083 | 94.10661 | 37881 ft | 451 kts | 294° |
| 2026-04-19 23:02 | 5.56670 | 94.04909 | 37882 ft | 452 kts | 294° |
| 2026-04-19 23:02 | 5.59252 | 93.99153 | 37897 ft | 452 kts | 294° |
| 2026-04-19 23:03 | 5.61841 | 93.93386 | 37905 ft | 453 kts | 294° |
| 2026-04-19 23:03 | 5.64433 | 93.87624 | 37905 ft | 453 kts | 294° |
| 2026-04-19 23:04 | 5.67032 | 93.81852 | 37899 ft | 453 kts | 294° |
| 2026-04-19 23:04 | 5.69620 | 93.76090 | 37908 ft | 452 kts | 294° |
| 2026-04-19 23:05 | 5.72206 | 93.70337 | 37914 ft | 451 kts | 294° |
| 2026-04-19 23:05 | 5.74787 | 93.64600 | 37909 ft | 450 kts | 294° |
| 2026-04-19 23:06 | 5.77341 | 93.58910 | 37907 ft | 450 kts | 294° |
| 2026-04-19 23:06 | 5.79912 | 93.53187 | 37911 ft | 450 kts | 294° |
| 2026-04-19 23:07 | 5.82477 | 93.47459 | 37910 ft | 449 kts | 294° |
| 2026-04-19 23:07 | 5.85041 | 93.41731 | 37905 ft | 449 kts | 294° |
| 2026-04-19 23:08 | 5.87608 | 93.36010 | 37913 ft | 449 kts | 294° |
| 2026-04-19 23:08 | 5.90173 | 93.30286 | 37905 ft | 449 kts | 294° |
| 2026-04-19 23:09 | 5.92729 | 93.24565 | 37904 ft | 449 kts | 294° |
| 2026-04-19 23:09 | 5.95288 | 93.18843 | 37904 ft | 449 kts | 294° |
| 2026-04-19 23:10 | 5.97837 | 93.13153 | 37904 ft | 449 kts | 294° |
| 2026-04-19 23:10 | 6.00403 | 93.07435 | 37904 ft | 449 kts | 294° |
| 2026-04-19 23:11 | 6.02996 | 93.01729 | 37900 ft | 449 kts | 294° |
| 2026-04-19 23:11 | 6.05614 | 92.96031 | 37893 ft | 449 kts | 294° |
| 2026-04-19 23:12 | 6.08218 | 92.90321 | 37899 ft | 449 kts | 294° |
| 2026-04-19 23:12 | 6.10815 | 92.84605 | 37896 ft | 449 kts | 294° |
| 2026-04-19 23:13 | 6.13418 | 92.78896 | 37897 ft | 449 kts | 294° |
| 2026-04-19 23:13 | 6.16002 | 92.73227 | 37892 ft | 449 kts | 294° |
| 2026-04-19 23:14 | 6.18601 | 92.67519 | 37903 ft | 449 kts | 294° |
| 2026-04-19 23:14 | 6.21205 | 92.61804 | 37900 ft | 449 kts | 294° |
| 2026-04-19 23:15 | 6.23809 | 92.56087 | 37896 ft | 450 kts | 294° |
| 2026-04-19 23:15 | 6.26404 | 92.50359 | 37895 ft | 450 kts | 294° |
| 2026-04-19 23:16 | 6.29001 | 92.44635 | 37893 ft | 450 kts | 294° |
| 2026-04-19 23:16 | 6.31605 | 92.38907 | 37905 ft | 450 kts | 294° |
| 2026-04-19 23:17 | 6.34201 | 92.33211 | 37886 ft | 450 kts | 294° |
| 2026-04-19 23:17 | 6.36803 | 92.27479 | 37893 ft | 451 kts | 294° |
| 2026-04-19 23:18 | 6.39402 | 92.21739 | 37898 ft | 451 kts | 294° |
| 2026-04-19 23:18 | 6.42013 | 92.16001 | 37894 ft | 451 kts | 294° |
| 2026-04-19 23:19 | 6.44618 | 92.10260 | 37901 ft | 451 kts | 294° |
| 2026-04-19 23:19 | 6.47213 | 92.04509 | 37895 ft | 451 kts | 294° |
| 2026-04-19 23:20 | 6.49824 | 91.98763 | 37906 ft | 451 kts | 294° |
| 2026-04-19 23:20 | 6.52421 | 91.93072 | 37901 ft | 451 kts | 294° |
| 2026-04-19 23:21 | 6.55038 | 91.87298 | 37904 ft | 450 kts | 294° |
| 2026-04-19 23:21 | 6.57613 | 91.81600 | 37893 ft | 450 kts | 294° |
| 2026-04-19 23:22 | 6.60205 | 91.75863 | 37906 ft | 450 kts | 294° |
| 2026-04-19 23:22 | 6.62801 | 91.70132 | 37897 ft | 450 kts | 294° |
| 2026-04-19 23:23 | 6.65384 | 91.64397 | 37895 ft | 450 kts | 294° |
| 2026-04-19 23:23 | 6.67976 | 91.58663 | 37894 ft | 450 kts | 294° |
| 2026-04-19 23:24 | 6.70576 | 91.52936 | 37896 ft | 450 kts | 294° |
| 2026-04-19 23:24 | 6.73168 | 91.47206 | 37908 ft | 450 kts | 294° |
| 2026-04-19 23:25 | 6.75755 | 91.41470 | 37904 ft | 450 kts | 294° |
| 2026-04-19 23:25 | 6.78342 | 91.35739 | 37893 ft | 449 kts | 294° |
| 2026-04-19 23:26 | 6.80907 | 91.30057 | 37885 ft | 448 kts | 294° |
| 2026-04-19 23:26 | 6.83488 | 91.24337 | 37893 ft | 449 kts | 294° |
| 2026-04-19 23:27 | 6.86065 | 91.18618 | 37902 ft | 449 kts | 294° |
| 2026-04-19 23:27 | 6.88645 | 91.12890 | 37905 ft | 449 kts | 293° |
| 2026-04-19 23:28 | 6.91226 | 91.07183 | 37891 ft | 449 kts | 293° |
| 2026-04-19 23:28 | 6.93809 | 91.01452 | 37894 ft | 450 kts | 293° |
| 2026-04-19 23:29 | 6.96399 | 90.95716 | 37890 ft | 450 kts | 293° |
| 2026-04-19 23:29 | 6.98980 | 90.89973 | 37900 ft | 450 kts | 293° |
| 2026-04-19 23:30 | 7.01560 | 90.84230 | 37898 ft | 450 kts | 293° |
| 2026-04-19 23:30 | 7.04127 | 90.78529 | 37907 ft | 450 kts | 293° |
| 2026-04-19 23:31 | 7.06702 | 90.72787 | 37892 ft | 450 kts | 293° |
| 2026-04-19 23:31 | 7.09277 | 90.67049 | 37898 ft | 450 kts | 293° |
| 2026-04-19 23:32 | 7.11868 | 90.61296 | 37893 ft | 450 kts | 293° |
| 2026-04-19 23:32 | 7.14453 | 90.55559 | 37896 ft | 450 kts | 293° |
| 2026-04-19 23:33 | 7.17017 | 90.49849 | 37888 ft | 450 kts | 293° |
| 2026-04-19 23:33 | 7.19597 | 90.44104 | 37898 ft | 450 kts | 293° |
| 2026-04-19 23:34 | 7.22169 | 90.38360 | 37899 ft | 450 kts | 293° |
| 2026-04-19 23:34 | 7.24741 | 90.32613 | 37893 ft | 450 kts | 293° |
| 2026-04-19 23:35 | 7.27318 | 90.26859 | 37894 ft | 450 kts | 293° |
| 2026-04-19 23:35 | 7.29903 | 90.21107 | 37893 ft | 451 kts | 293° |
| 2026-04-19 23:36 | 7.32475 | 90.15377 | 37896 ft | 451 kts | 293° |
| 2026-04-19 23:36 | 7.35053 | 90.09614 | 37890 ft | 451 kts | 293° |
| 2026-04-19 23:37 | 7.37629 | 90.03849 | 37898 ft | 451 kts | 293° |
| 2026-04-19 23:37 | 7.40215 | 89.98085 | 37896 ft | 451 kts | 293° |
| 2026-04-19 23:38 | 7.42362 | 89.93288 | 37899 ft | 451 kts | 293° |
| 2026-04-19 23:38 | 7.44931 | 89.87532 | 37892 ft | 450 kts | 293° |
| 2026-04-19 23:39 | 7.47501 | 89.81774 | 37899 ft | 449 kts | 293° |
| 2026-04-19 23:39 | 7.50054 | 89.76062 | 37892 ft | 449 kts | 293° |
| 2026-04-19 23:40 | 7.52617 | 89.70323 | 37892 ft | 449 kts | 293° |
| 2026-04-19 23:40 | 7.55179 | 89.64581 | 37894 ft | 449 kts | 293° |
| 2026-04-19 23:41 | 7.57732 | 89.58845 | 37886 ft | 449 kts | 293° |
| 2026-04-19 23:41 | 7.60300 | 89.53108 | 37900 ft | 449 kts | 292° |
| 2026-04-19 23:42 | 7.62858 | 89.47366 | 37888 ft | 448 kts | 292° |
| 2026-04-19 23:42 | 7.65399 | 89.41669 | 37896 ft | 448 kts | 292° |
| 2026-04-19 23:43 | 7.67952 | 89.35943 | 37891 ft | 447 kts | 292° |
| 2026-04-19 23:43 | 7.70506 | 89.30227 | 37895 ft | 447 kts | 293° |
| 2026-04-19 23:44 | 7.73108 | 89.24529 | 37886 ft | 447 kts | 293° |
| 2026-04-19 23:44 | 7.75727 | 89.18831 | 37875 ft | 448 kts | 293° |
| 2026-04-19 23:45 | 7.78336 | 89.13120 | 37884 ft | 449 kts | 293° |
| 2026-04-19 23:45 | 7.80948 | 89.07399 | 37879 ft | 449 kts | 293° |
| 2026-04-19 23:46 | 7.83555 | 89.01673 | 37884 ft | 449 kts | 293° |
| 2026-04-19 23:46 | 7.86165 | 88.95940 | 37883 ft | 450 kts | 293° |
| 2026-04-19 23:47 | 7.88783 | 88.90203 | 37888 ft | 450 kts | 293° |
| 2026-04-19 23:47 | 7.91391 | 88.84472 | 37893 ft | 450 kts | 292° |
| 2026-04-19 23:48 | 7.93993 | 88.78737 | 37902 ft | 449 kts | 293° |
| 2026-04-19 23:48 | 7.96591 | 88.73017 | 37891 ft | 448 kts | 293° |
| 2026-04-19 23:49 | 7.99184 | 88.67312 | 37901 ft | 447 kts | 293° |
| 2026-04-19 23:49 | 8.01766 | 88.61646 | 37905 ft | 447 kts | 293° |
| 2026-04-19 23:50 | 8.04362 | 88.55947 | 37893 ft | 447 kts | 293° |
| 2026-04-19 23:50 | 8.06947 | 88.50248 | 37896 ft | 446 kts | 293° |
| 2026-04-19 23:51 | 8.09537 | 88.44549 | 37893 ft | 447 kts | 292° |
| 2026-04-19 23:51 | 8.12130 | 88.38841 | 37873 ft | 448 kts | 292° |
| 2026-04-19 23:52 | 8.14719 | 88.33114 | 37876 ft | 449 kts | 292° |
| 2026-04-19 23:52 | 8.17319 | 88.27379 | 37892 ft | 449 kts | 292° |
| 2026-04-19 23:53 | 8.19931 | 88.21642 | 37891 ft | 450 kts | 292° |
| 2026-04-19 23:53 | 8.22519 | 88.15931 | 37889 ft | 450 kts | 292° |
| 2026-04-19 23:54 | 8.25115 | 88.10178 | 37885 ft | 450 kts | 292° |
| 2026-04-19 23:54 | 8.27712 | 88.04434 | 37883 ft | 450 kts | 293° |
| 2026-04-19 23:55 | 8.30314 | 87.98682 | 37886 ft | 450 kts | 292° |
| 2026-04-19 23:55 | 8.32919 | 87.92925 | 37889 ft | 451 kts | 293° |
| 2026-04-19 23:56 | 8.35520 | 87.87171 | 37882 ft | 450 kts | 292° |
| 2026-04-19 23:56 | 8.38101 | 87.81468 | 37882 ft | 449 kts | 292° |
| 2026-04-19 23:57 | 8.40686 | 87.75736 | 37889 ft | 448 kts | 292° |
| 2026-04-19 23:57 | 8.43277 | 87.70012 | 37894 ft | 448 kts | 292° |
| 2026-04-19 23:58 | 8.45864 | 87.64285 | 37888 ft | 447 kts | 292° |
| 2026-04-19 23:58 | 8.48446 | 87.58559 | 37883 ft | 447 kts | 292° |
| 2026-04-19 23:59 | 8.51012 | 87.52841 | 37877 ft | 447 kts | 292° |
| 2026-04-19 23:59 | 8.53585 | 87.47122 | 37885 ft | 447 kts | 292° |
| 2026-04-20 00:00 | 8.56170 | 87.41403 | 37893 ft | 447 kts | 292° |
| 2026-04-20 00:00 | 8.58724 | 87.35720 | 37891 ft | 447 kts | 292° |
| 2026-04-20 00:01 | 8.61295 | 87.30003 | 37894 ft | 447 kts | 292° |
| 2026-04-20 00:02 | 8.65157 | 87.21407 | 37871 ft | 447 kts | 292° |
| 2026-04-20 00:02 | 8.67732 | 87.15679 | 37876 ft | 448 kts | 292° |
| 2026-04-20 00:03 | 8.70309 | 87.09950 | 37889 ft | 448 kts | 292° |
| 2026-04-20 00:03 | 8.72885 | 87.04197 | 37894 ft | 448 kts | 292° |
| 2026-04-20 00:04 | 8.75455 | 86.98465 | 37888 ft | 448 kts | 292° |
| 2026-04-20 00:04 | 8.78031 | 86.92728 | 37878 ft | 448 kts | 292° |
| 2026-04-20 00:05 | 8.80614 | 86.86986 | 37868 ft | 449 kts | 292° |
| 2026-04-20 00:05 | 8.83179 | 86.81267 | 37874 ft | 450 kts | 292° |
| 2026-04-20 00:06 | 8.85758 | 86.75501 | 37879 ft | 450 kts | 292° |
| 2026-04-20 00:06 | 8.88342 | 86.69732 | 37879 ft | 450 kts | 292° |
| 2026-04-20 00:07 | 8.90925 | 86.63961 | 37890 ft | 450 kts | 292° |
| 2026-04-20 00:07 | 8.93508 | 86.58194 | 37887 ft | 450 kts | 292° |
| 2026-04-20 00:08 | 8.96089 | 86.52423 | 37883 ft | 450 kts | 292° |
| 2026-04-20 00:08 | 8.98665 | 86.46645 | 37889 ft | 450 kts | 292° |
| 2026-04-20 00:09 | 9.01239 | 86.40873 | 37889 ft | 450 kts | 292° |
| 2026-04-20 00:09 | 9.03798 | 86.35149 | 37893 ft | 449 kts | 292° |
| 2026-04-20 00:10 | 9.06382 | 86.29345 | 37889 ft | 449 kts | 292° |
| 2026-04-20 00:10 | 9.08932 | 86.23621 | 37895 ft | 449 kts | 292° |
| 2026-04-20 00:11 | 9.11507 | 86.17863 | 37888 ft | 449 kts | 292° |
| 2026-04-20 00:11 | 9.14077 | 86.12100 | 37888 ft | 449 kts | 292° |
| 2026-04-20 00:12 | 9.16643 | 86.06333 | 37892 ft | 449 kts | 292° |
| 2026-04-20 00:12 | 9.19205 | 86.00574 | 37887 ft | 449 kts | 291° |
| 2026-04-20 00:13 | 9.21761 | 85.94818 | 37884 ft | 449 kts | 292° |
| 2026-04-20 00:13 | 9.24319 | 85.89062 | 37894 ft | 448 kts | 291° |
| 2026-04-20 00:14 | 9.26903 | 85.83305 | 37888 ft | 449 kts | 292° |
| 2026-04-20 00:14 | 9.29571 | 85.77594 | 37887 ft | 449 kts | 293° |
| 2026-04-20 00:15 | 9.32261 | 85.71884 | 37893 ft | 449 kts | 293° |
| 2026-04-20 00:15 | 9.34901 | 85.66204 | 37892 ft | 449 kts | 292° |
| 2026-04-20 00:16 | 9.37543 | 85.60475 | 37884 ft | 449 kts | 292° |
| 2026-04-20 00:16 | 9.40190 | 85.54752 | 37883 ft | 449 kts | 292° |
| 2026-04-20 00:17 | 9.42833 | 85.49025 | 37889 ft | 448 kts | 292° |
| 2026-04-20 00:17 | 9.45492 | 85.43295 | 37893 ft | 449 kts | 293° |
| 2026-04-20 00:18 | 9.48131 | 85.37604 | 37893 ft | 449 kts | 293° |
| 2026-04-20 00:18 | 9.50785 | 85.31871 | 37887 ft | 449 kts | 293° |
| 2026-04-20 00:19 | 9.53434 | 85.26126 | 37882 ft | 449 kts | 293° |
| 2026-04-20 00:19 | 9.56075 | 85.20389 | 37890 ft | 449 kts | 293° |
| 2026-04-20 00:20 | 9.58722 | 85.14655 | 37879 ft | 449 kts | 293° |
| 2026-04-20 00:20 | 9.61375 | 85.08908 | 37893 ft | 449 kts | 293° |
| 2026-04-20 00:21 | 9.64009 | 85.03202 | 37897 ft | 449 kts | 293° |
| 2026-04-20 00:21 | 9.66659 | 84.97456 | 37897 ft | 449 kts | 292° |
| 2026-04-20 00:22 | 9.69303 | 84.91708 | 37883 ft | 450 kts | 292° |
| 2026-04-20 00:22 | 9.71935 | 84.85987 | 37887 ft | 450 kts | 292° |
| 2026-04-20 00:23 | 9.74581 | 84.80237 | 37891 ft | 450 kts | 292° |
| 2026-04-20 00:23 | 9.77226 | 84.74488 | 37886 ft | 450 kts | 292° |
| 2026-04-20 00:24 | 9.79870 | 84.68725 | 37880 ft | 449 kts | 292° |
| 2026-04-20 00:24 | 9.82067 | 84.63945 | 37888 ft | 449 kts | 292° |
| 2026-04-20 00:25 | 9.85144 | 84.57258 | 37891 ft | 449 kts | 292° |
| 2026-04-20 00:25 | 9.87332 | 84.52477 | 37893 ft | 449 kts | 292° |
| 2026-04-20 00:26 | 9.89964 | 84.46722 | 37882 ft | 449 kts | 292° |
| 2026-04-20 00:26 | 9.92601 | 84.40969 | 37895 ft | 449 kts | 292° |
| 2026-04-20 00:27 | 9.95239 | 84.35217 | 37882 ft | 449 kts | 292° |
| 2026-04-20 00:27 | 9.97861 | 84.29501 | 37881 ft | 449 kts | 292° |
| 2026-04-20 00:28 | 10.00495 | 84.23747 | 37888 ft | 449 kts | 292° |
| 2026-04-20 00:28 | 10.03125 | 84.17987 | 37887 ft | 449 kts | 292° |
| 2026-04-20 00:29 | 10.05763 | 84.12227 | 37884 ft | 449 kts | 292° |
| 2026-04-20 00:29 | 10.08392 | 84.06469 | 37885 ft | 449 kts | 292° |
| 2026-04-20 00:30 | 10.11003 | 84.00744 | 37889 ft | 449 kts | 292° |
| 2026-04-20 00:30 | 10.13631 | 83.94989 | 37882 ft | 449 kts | 292° |
| 2026-04-20 00:31 | 10.16256 | 83.89239 | 37890 ft | 449 kts | 292° |
| 2026-04-20 00:31 | 10.18877 | 83.83488 | 37893 ft | 448 kts | 292° |
| 2026-04-20 00:32 | 10.21490 | 83.77748 | 37893 ft | 447 kts | 292° |
| 2026-04-20 00:32 | 10.24097 | 83.72019 | 37886 ft | 447 kts | 292° |
| 2026-04-20 00:33 | 10.26699 | 83.66288 | 37887 ft | 447 kts | 292° |
| 2026-04-20 00:33 | 10.29307 | 83.60561 | 37887 ft | 447 kts | 292° |
| 2026-04-20 00:34 | 10.31898 | 83.54879 | 37887 ft | 446 kts | 292° |
| 2026-04-20 00:34 | 10.34500 | 83.49155 | 37892 ft | 446 kts | 292° |
| 2026-04-20 00:35 | 10.37099 | 83.43433 | 37889 ft | 445 kts | 292° |
| 2026-04-20 00:35 | 10.39691 | 83.37735 | 37888 ft | 444 kts | 292° |
| 2026-04-20 00:36 | 10.42272 | 83.32040 | 37887 ft | 444 kts | 292° |
| 2026-04-20 00:36 | 10.44848 | 83.26358 | 37889 ft | 443 kts | 292° |
| 2026-04-20 00:37 | 10.47422 | 83.20662 | 37884 ft | 443 kts | 292° |
| 2026-04-20 00:37 | 10.49997 | 83.14971 | 37884 ft | 443 kts | 292° |
| 2026-04-20 00:38 | 10.52560 | 83.09327 | 37891 ft | 442 kts | 291° |
| 2026-04-20 00:38 | 10.55128 | 83.03649 | 37888 ft | 442 kts | 291° |
| 2026-04-20 00:39 | 10.57685 | 82.97968 | 37885 ft | 442 kts | 291° |
| 2026-04-20 00:39 | 10.60251 | 82.92295 | 37876 ft | 442 kts | 291° |
| 2026-04-20 00:40 | 10.62813 | 82.86626 | 37875 ft | 442 kts | 291° |
| 2026-04-20 00:40 | 10.65379 | 82.80958 | 37879 ft | 442 kts | 291° |
| 2026-04-20 00:41 | 10.67959 | 82.75283 | 37893 ft | 441 kts | 291° |
| 2026-04-20 00:41 | 10.70529 | 82.69630 | 37880 ft | 440 kts | 291° |
| 2026-04-20 00:42 | 10.73090 | 82.63976 | 37881 ft | 439 kts | 291° |
| 2026-04-20 00:42 | 10.75650 | 82.58338 | 37880 ft | 439 kts | 291° |
| 2026-04-20 00:43 | 10.78200 | 82.52704 | 37879 ft | 438 kts | 291° |
| 2026-04-20 00:43 | 10.80744 | 82.47065 | 37883 ft | 438 kts | 291° |
| 2026-04-20 00:44 | 10.83292 | 82.41426 | 37885 ft | 438 kts | 291° |
| 2026-04-20 00:44 | 10.85822 | 82.35823 | 37877 ft | 438 kts | 290° |
| 2026-04-20 00:45 | 10.88375 | 82.30187 | 37877 ft | 438 kts | 290° |
| 2026-04-20 00:45 | 10.90926 | 82.24557 | 37880 ft | 438 kts | 290° |
| 2026-04-20 00:46 | 10.93461 | 82.18924 | 37881 ft | 438 kts | 290° |
| 2026-04-20 00:46 | 10.95997 | 82.13289 | 37876 ft | 438 kts | 290° |
| 2026-04-20 00:47 | 10.98527 | 82.07661 | 37883 ft | 437 kts | 290° |
| 2026-04-20 00:47 | 11.01065 | 82.02033 | 37878 ft | 437 kts | 290° |
| 2026-04-20 00:48 | 11.03606 | 81.96408 | 37882 ft | 437 kts | 290° |
| 2026-04-20 00:48 | 11.06140 | 81.90779 | 37877 ft | 437 kts | 290° |
| 2026-04-20 00:49 | 11.08648 | 81.85186 | 37874 ft | 437 kts | 290° |
| 2026-04-20 00:49 | 11.11176 | 81.79554 | 37871 ft | 437 kts | 290° |
| 2026-04-20 00:50 | 11.13702 | 81.73926 | 37875 ft | 437 kts | 290° |
| 2026-04-20 00:50 | 11.16228 | 81.68293 | 37873 ft | 437 kts | 290° |
| 2026-04-20 00:51 | 11.18752 | 81.62666 | 37873 ft | 437 kts | 290° |
| 2026-04-20 00:51 | 11.21272 | 81.57044 | 37884 ft | 436 kts | 290° |
| 2026-04-20 00:52 | 11.23793 | 81.51422 | 37884 ft | 436 kts | 290° |
| 2026-04-20 00:52 | 11.26311 | 81.45806 | 37882 ft | 435 kts | 290° |
| 2026-04-20 00:53 | 11.28807 | 81.40233 | 37878 ft | 435 kts | 290° |
| 2026-04-20 00:53 | 11.31313 | 81.34613 | 37872 ft | 435 kts | 289° |
| 2026-04-20 00:54 | 11.33814 | 81.29001 | 37872 ft | 435 kts | 290° |
| 2026-04-20 00:54 | 11.36331 | 81.23385 | 37864 ft | 435 kts | 290° |
| 2026-04-20 00:55 | 11.38848 | 81.17769 | 37861 ft | 436 kts | 290° |
| 2026-04-20 00:55 | 11.41355 | 81.12137 | 37868 ft | 436 kts | 290° |
| 2026-04-20 00:56 | 11.43860 | 81.06498 | 37877 ft | 436 kts | 290° |
| 2026-04-20 00:56 | 11.46376 | 81.00859 | 37873 ft | 437 kts | 290° |
| 2026-04-20 00:57 | 11.48876 | 80.95260 | 37875 ft | 437 kts | 290° |
| 2026-04-20 00:57 | 11.51384 | 80.89621 | 37871 ft | 437 kts | 290° |
| 2026-04-20 00:58 | 11.53889 | 80.83977 | 37876 ft | 437 kts | 290° |
| 2026-04-20 00:58 | 11.56388 | 80.78338 | 37885 ft | 437 kts | 290° |
| 2026-04-20 00:59 | 11.58903 | 80.72687 | 37868 ft | 437 kts | 290° |
| 2026-04-20 00:59 | 11.61418 | 80.67043 | 37883 ft | 437 kts | 290° |
| 2026-04-20 01:00 | 11.63906 | 80.61438 | 37877 ft | 437 kts | 290° |
| 2026-04-20 01:00 | 11.66403 | 80.55794 | 37865 ft | 436 kts | 290° |
| 2026-04-20 01:01 | 11.68900 | 80.50146 | 37868 ft | 437 kts | 290° |
| 2026-04-20 01:01 | 11.71405 | 80.44496 | 37866 ft | 437 kts | 290° |
| 2026-04-20 01:02 | 11.73920 | 80.38836 | 37861 ft | 438 kts | 290° |
| 2026-04-20 01:02 | 11.76434 | 80.33171 | 37874 ft | 438 kts | 290° |
| 2026-04-20 01:03 | 11.78939 | 80.27493 | 37875 ft | 438 kts | 290° |
| 2026-04-20 01:03 | 11.81422 | 80.21858 | 37881 ft | 438 kts | 290° |
| 2026-04-20 01:04 | 11.83931 | 80.16185 | 37889 ft | 439 kts | 290° |
| 2026-04-20 01:04 | 11.86439 | 80.10507 | 37884 ft | 439 kts | 290° |
| 2026-04-20 01:05 | 11.88923 | 80.04823 | 37878 ft | 438 kts | 290° |
| 2026-04-20 01:05 | 11.91400 | 79.99131 | 37883 ft | 438 kts | 290° |
| 2026-04-20 01:06 | 11.93879 | 79.93436 | 37882 ft | 438 kts | 290° |
| 2026-04-20 01:06 | 11.96350 | 79.87744 | 37880 ft | 438 kts | 290° |
| 2026-04-20 01:07 | 11.98829 | 79.82051 | 37883 ft | 438 kts | 290° |
| 2026-04-20 01:07 | 12.01302 | 79.76358 | 37892 ft | 438 kts | 290° |
| 2026-04-20 01:08 | 12.03768 | 79.70666 | 37900 ft | 438 kts | 290° |
| 2026-04-20 01:08 | 12.06246 | 79.64966 | 37899 ft | 439 kts | 290° |
| 2026-04-20 01:09 | 12.08705 | 79.59310 | 37895 ft | 438 kts | 290° |
| 2026-04-20 01:09 | 12.11250 | 79.53647 | 37902 ft | 439 kts | 291° |
| 2026-04-20 01:09 | 12.12555 | 79.50826 | 37663 ft | 440 kts | 291° |
| 2026-04-20 01:10 | 12.13864 | 79.47996 | 36716 ft | 439 kts | 291° |
| 2026-04-20 01:10 | 12.16380 | 79.42557 | 36034 ft | 409 kts | 291° |
| 2026-04-20 01:10 | 12.17571 | 79.39957 | 35619 ft | 400 kts | 291° |
| 2026-04-20 01:11 | 12.18747 | 79.37372 | 35210 ft | 401 kts | 290° |
| 2026-04-20 01:11 | 12.19914 | 79.34788 | 34772 ft | 400 kts | 290° |
| 2026-04-20 01:11 | 12.21078 | 79.32212 | 34346 ft | 399 kts | 290° |
| 2026-04-20 01:11 | 12.22247 | 79.29632 | 33912 ft | 399 kts | 290° |
| 2026-04-20 01:12 | 12.23411 | 79.27065 | 33425 ft | 398 kts | 290° |
| 2026-04-20 01:12 | 12.24575 | 79.24499 | 32989 ft | 396 kts | 291° |
| 2026-04-20 01:12 | 12.25733 | 79.21952 | 32548 ft | 395 kts | 291° |
| 2026-04-20 01:12 | 12.26872 | 79.19445 | 32128 ft | 393 kts | 291° |
| 2026-04-20 01:13 | 12.28020 | 79.16914 | 31694 ft | 392 kts | 291° |
| 2026-04-20 01:13 | 12.29166 | 79.14391 | 31271 ft | 391 kts | 291° |
| 2026-04-20 01:13 | 12.30307 | 79.11873 | 30865 ft | 389 kts | 291° |
| 2026-04-20 01:13 | 12.31446 | 79.09365 | 30445 ft | 389 kts | 291° |
| 2026-04-20 01:14 | 12.32584 | 79.06862 | 30040 ft | 387 kts | 291° |
| 2026-04-20 01:14 | 12.33717 | 79.04368 | 29597 ft | 386 kts | 291° |
| 2026-04-20 01:14 | 12.34844 | 79.01886 | 29203 ft | 383 kts | 291° |
| 2026-04-20 01:14 | 12.35963 | 78.99421 | 28820 ft | 380 kts | 291° |
| 2026-04-20 01:15 | 12.36698 | 78.97798 | 28570 ft | 378 kts | 291° |
| 2026-04-20 01:15 | 12.37798 | 78.95370 | 28193 ft | 375 kts | 291° |
| 2026-04-20 01:15 | 12.38886 | 78.92962 | 27822 ft | 372 kts | 291° |
| 2026-04-20 01:15 | 12.39968 | 78.90565 | 27454 ft | 369 kts | 292° |
| 2026-04-20 01:16 | 12.41040 | 78.88189 | 27071 ft | 367 kts | 292° |
| 2026-04-20 01:16 | 12.42105 | 78.85828 | 26688 ft | 364 kts | 292° |
| 2026-04-20 01:16 | 12.43506 | 78.82724 | 26176 ft | 362 kts | 292° |
| 2026-04-20 01:16 | 12.44219 | 78.81146 | 25908 ft | 361 kts | 292° |
| 2026-04-20 01:17 | 12.45272 | 78.78817 | 25515 ft | 360 kts | 293° |
| 2026-04-20 01:17 | 12.46325 | 78.76495 | 25108 ft | 359 kts | 293° |
| 2026-04-20 01:17 | 12.47376 | 78.74175 | 24696 ft | 359 kts | 293° |
| 2026-04-20 01:17 | 12.48410 | 78.71885 | 24287 ft | 359 kts | 294° |
| 2026-04-20 01:18 | 12.49471 | 78.69535 | 23865 ft | 360 kts | 294° |
| 2026-04-20 01:18 | 12.50522 | 78.67206 | 23422 ft | 360 kts | 294° |
| 2026-04-20 01:18 | 12.51570 | 78.64882 | 22955 ft | 360 kts | 294° |
| 2026-04-20 01:18 | 12.52604 | 78.62590 | 22544 ft | 358 kts | 294° |
| 2026-04-20 01:19 | 12.53644 | 78.60281 | 22126 ft | 356 kts | 294° |
| 2026-04-20 01:19 | 12.54680 | 78.57976 | 21701 ft | 354 kts | 294° |
| 2026-04-20 01:19 | 12.55714 | 78.55680 | 21271 ft | 353 kts | 294° |
| 2026-04-20 01:19 | 12.56740 | 78.53402 | 20851 ft | 352 kts | 294° |
| 2026-04-20 01:20 | 12.57751 | 78.51157 | 20434 ft | 351 kts | 294° |
| 2026-04-20 01:20 | 12.58790 | 78.48854 | 20004 ft | 351 kts | 294° |
| 2026-04-20 01:20 | 12.59799 | 78.46621 | 19584 ft | 351 kts | 294° |
| 2026-04-20 01:20 | 12.60824 | 78.44348 | 19163 ft | 351 kts | 294° |
| 2026-04-20 01:21 | 12.61847 | 78.42078 | 18742 ft | 351 kts | 294° |
| 2026-04-20 01:21 | 12.62867 | 78.39810 | 18343 ft | 351 kts | 294° |
| 2026-04-20 01:21 | 12.63888 | 78.37539 | 17855 ft | 351 kts | 294° |
| 2026-04-20 01:21 | 12.64908 | 78.35274 | 17428 ft | 349 kts | 295° |
| 2026-04-20 01:22 | 12.65922 | 78.33016 | 17001 ft | 348 kts | 295° |
| 2026-04-20 01:22 | 12.66929 | 78.30767 | 16581 ft | 347 kts | 295° |
| 2026-04-20 01:22 | 12.67935 | 78.28524 | 16168 ft | 346 kts | 295° |
| 2026-04-20 01:22 | 12.68940 | 78.26289 | 15754 ft | 345 kts | 296° |
| 2026-04-20 01:23 | 12.69944 | 78.24056 | 15339 ft | 345 kts | 296° |
| 2026-04-20 01:23 | 12.70945 | 78.21825 | 14929 ft | 345 kts | 296° |
| 2026-04-20 01:23 | 12.71948 | 78.19591 | 14518 ft | 345 kts | 296° |
| 2026-04-20 01:23 | 12.72949 | 78.17359 | 14082 ft | 345 kts | 297° |
| 2026-04-20 01:24 | 12.73951 | 78.15125 | 13621 ft | 346 kts | 297° |
| 2026-04-20 01:24 | 12.74955 | 78.12885 | 13165 ft | 345 kts | 297° |
| 2026-04-20 01:24 | 12.75955 | 78.10653 | 12723 ft | 345 kts | 297° |
| 2026-04-20 01:24 | 12.76957 | 78.08423 | 12288 ft | 344 kts | 297° |
| 2026-04-20 01:25 | 12.77957 | 78.06198 | 11845 ft | 343 kts | 297° |
| 2026-04-20 01:25 | 12.78947 | 78.03986 | 11447 ft | 342 kts | 297° |
| 2026-04-20 01:25 | 12.79931 | 78.01785 | 11074 ft | 339 kts | 297° |
| 2026-04-20 01:25 | 12.80910 | 77.99591 | 10734 ft | 336 kts | 297° |
| 2026-04-20 01:26 | 12.81878 | 77.97424 | 10340 ft | 334 kts | 297° |
| 2026-04-20 01:26 | 12.82841 | 77.95269 | 9976 ft | 332 kts | 297° |
| 2026-04-20 01:26 | 12.83794 | 77.93141 | 9591 ft | 326 kts | 297° |
| 2026-04-20 01:26 | 12.84705 | 77.91101 | 9291 ft | 309 kts | 297° |
| 2026-04-20 01:27 | 12.85621 | 77.89202 | 9141 ft | 285 kts | 307° |
| 2026-04-20 01:27 | 12.86940 | 77.87821 | 9012 ft | 260 kts | 330° |
| 2026-04-20 01:27 | 12.88499 | 77.87106 | 8946 ft | 234 kts | 351° |
| 2026-04-20 01:27 | 12.90042 | 77.86942 | 8877 ft | 214 kts | 2° |
| 2026-04-20 01:28 | 12.91505 | 77.86896 | 8834 ft | 208 kts | 2° |
| 2026-04-20 01:28 | 12.92946 | 77.86849 | 8769 ft | 206 kts | 2° |
| 2026-04-20 01:28 | 12.94377 | 77.86803 | 8684 ft | 206 kts | 2° |
| 2026-04-20 01:28 | 12.95809 | 77.86757 | 8616 ft | 205 kts | 2° |
| 2026-04-20 01:29 | 12.97239 | 77.86713 | 8555 ft | 205 kts | 2° |
| 2026-04-20 01:29 | 12.98669 | 77.86668 | 8486 ft | 206 kts | 2° |
| 2026-04-20 01:29 | 13.00101 | 77.86622 | 8423 ft | 206 kts | 1° |
| 2026-04-20 01:29 | 13.01511 | 77.86576 | 8357 ft | 206 kts | 1° |
| 2026-04-20 01:30 | 13.02944 | 77.86529 | 8291 ft | 206 kts | 1° |
| 2026-04-20 01:30 | 13.04376 | 77.86481 | 8230 ft | 206 kts | 1° |
| 2026-04-20 01:30 | 13.05810 | 77.86433 | 8166 ft | 206 kts | 1° |
| 2026-04-20 01:30 | 13.07244 | 77.86390 | 8103 ft | 206 kts | 2° |
| 2026-04-20 01:31 | 13.08627 | 77.86660 | 8037 ft | 202 kts | 26° |
| 2026-04-20 01:31 | 13.09742 | 77.87504 | 7977 ft | 200 kts | 51° |
| 2026-04-20 01:31 | 13.10392 | 77.88743 | 7913 ft | 199 kts | 75° |
| 2026-04-20 01:31 | 13.10503 | 77.90151 | 7845 ft | 199 kts | 90° |
| 2026-04-20 01:32 | 13.10486 | 77.91573 | 7771 ft | 199 kts | 90° |
| 2026-04-20 01:32 | 13.10477 | 77.92989 | 7630 ft | 199 kts | 90° |
| 2026-04-20 01:32 | 13.10470 | 77.94407 | 7410 ft | 199 kts | 90° |
| 2026-04-20 01:32 | 13.10463 | 77.95832 | 7281 ft | 200 kts | 90° |
| 2026-04-20 01:33 | 13.10577 | 77.97244 | 7163 ft | 200 kts | 72° |
| 2026-04-20 01:33 | 13.11411 | 77.98359 | 7052 ft | 202 kts | 34° |
| 2026-04-20 01:33 | 13.12760 | 77.98707 | 6936 ft | 205 kts | 355° |
| 2026-04-20 01:33 | 13.14142 | 77.98402 | 6985 ft | 207 kts | 353° |
| 2026-04-20 01:34 | 13.15577 | 77.98320 | 6998 ft | 206 kts | 1° |
| 2026-04-20 01:34 | 13.17010 | 77.98347 | 6998 ft | 206 kts | 3° |
| 2026-04-20 01:34 | 13.18441 | 77.98367 | 6995 ft | 206 kts | 357° |
| 2026-04-20 01:34 | 13.19762 | 77.97827 | 6991 ft | 210 kts | 319° |
| 2026-04-20 01:35 | 13.20453 | 77.96535 | 6868 ft | 211 kts | 277° |
| 2026-04-20 01:35 | 13.20493 | 77.95038 | 6712 ft | 209 kts | 269° |
| 2026-04-20 01:35 | 13.20494 | 77.93552 | 6550 ft | 207 kts | 270° |
| 2026-04-20 01:35 | 13.20504 | 77.92088 | 6429 ft | 200 kts | 270° |
| 2026-04-20 01:36 | 13.20516 | 77.90726 | 6283 ft | 185 kts | 269° |
| 2026-04-20 01:36 | 13.20529 | 77.89422 | 6082 ft | 181 kts | 269° |
| 2026-04-20 01:36 | 13.20540 | 77.88141 | 5856 ft | 178 kts | 270° |
| 2026-04-20 01:36 | 13.20552 | 77.86874 | 5627 ft | 177 kts | 270° |
| 2026-04-20 01:37 | 13.20564 | 77.85616 | 5402 ft | 176 kts | 270° |
| 2026-04-20 01:37 | 13.20575 | 77.84364 | 5181 ft | 175 kts | 271° |
| 2026-04-20 01:37 | 13.20587 | 77.83134 | 4965 ft | 174 kts | 271° |
| 2026-04-20 01:37 | 13.20598 | 77.81880 | 4747 ft | 173 kts | 271° |
| 2026-04-20 01:38 | 13.20610 | 77.80651 | 4524 ft | 171 kts | 271° |
| 2026-04-20 01:38 | 13.20620 | 77.79506 | 4311 ft | 152 kts | 271° |
| 2026-04-20 01:38 | 13.20629 | 77.78451 | 4131 ft | 145 kts | 271° |
| 2026-04-20 01:38 | 13.20639 | 77.77439 | 3951 ft | 143 kts | 271° |
| 2026-04-20 01:39 | 13.20648 | 77.76430 | 3763 ft | 140 kts | 270° |
| 2026-04-20 01:39 | 13.20657 | 77.75430 | 3574 ft | 139 kts | 271° |
| 2026-04-20 01:39 | 13.20665 | 77.74436 | 3389 ft | 139 kts | 271° |
| 2026-04-20 01:39 | 13.20674 | 77.73444 | 3201 ft | 139 kts | 271° |
| 2026-04-20 01:40 | 13.20683 | 77.72457 | 3022 ft | 138 kts | 271° |
| 2026-04-20 01:40 | 13.20695 | 77.71499 | 2942 ft | 122 kts | 271° |
| 2026-04-20 01:40 | 13.20700 | 77.70756 | 2958 ft | 89 kts | 271° |
| 2026-04-20 01:40 | 13.20703 | 77.70262 | 2969 ft | 54 kts | 270° |
| 2026-04-20 01:41 | 13.20635 | 77.70005 | 2974 ft | 34 kts | 242° |
| 2026-04-20 01:41 | 13.20566 | 77.69880 | 2977 ft | 0 kts | 237° |
| 2026-04-20 01:41 | 13.20543 | 77.69873 | 2977 ft | 8 kts | 166° |
| 2026-04-20 01:42 | 13.20535 | 77.69936 | 2976 ft | 11 kts | 87° |
| 2026-04-20 01:42 | 13.20534 | 77.70029 | 2974 ft | 15 kts | 90° |
| 2026-04-20 01:42 | 13.20532 | 77.70150 | 2971 ft | 19 kts | 91° |
| 2026-04-20 01:42 | 13.20532 | 77.70299 | 2968 ft | 22 kts | 89° |
| 2026-04-20 01:43 | 13.20479 | 77.70391 | 2957 ft | 17 kts | 174° |
| 2026-04-20 01:43 | 13.20353 | 77.70391 | 2952 ft | 19 kts | 180° |
| 2026-04-20 01:43 | 13.20248 | 77.70436 | 2962 ft | 17 kts | 108° |
| 2026-04-20 01:43 | 13.20243 | 77.70571 | 2962 ft | 21 kts | 91° |
| 2026-04-20 01:44 | 13.20242 | 77.70738 | 2945 ft | 25 kts | 92° |
| 2026-04-20 01:44 | 13.20241 | 77.70935 | 2949 ft | 30 kts | 89° |
| 2026-04-20 01:44 | 13.20239 | 77.71158 | 2949 ft | 31 kts | 91° |
| 2026-04-20 01:44 | 13.20208 | 77.71241 | 2945 ft | 5 kts | 195° |
| 2026-04-20 01:45 | 13.20185 | 77.71239 | 2944 ft | 4 kts | 181° |
| 2026-04-20 01:45 | 13.20166 | 77.71239 | 2947 ft | 0 kts | 181° |